createdAt,value
2019-06-19T00:00:33.947Z,0.00
2019-06-19T00:01:34.029Z,0.00
2019-06-19T00:02:34.273Z,0.00
2019-06-19T00:03:34.405Z,0.00
2019-06-19T00:04:34.514Z,0.00
2019-06-19T00:05:34.647Z,0.00
2019-06-19T00:06:34.852Z,0.00
2019-06-19T00:07:34.944Z,0.00
2019-06-19T00:08:35.176Z,0.00
2019-06-19T00:09:35.283Z,0.00
2019-06-19T00:10:35.501Z,0.00
2019-06-19T00:11:35.640Z,0.00
2019-06-19T00:12:35.706Z,0.00
2019-06-19T00:13:35.917Z,0.00
2019-06-19T00:14:36.034Z,0.00
2019-06-19T00:15:36.117Z,0.00
2019-06-19T00:16:36.353Z,0.00
2019-06-19T00:17:36.468Z,0.00
2019-06-19T00:18:36.583Z,0.00
2019-06-19T00:19:37.090Z,0.00
2019-06-19T00:20:37.131Z,0.00
2019-06-19T00:21:37.161Z,0.00
2019-06-19T00:22:37.206Z,0.00
2019-06-19T00:23:37.428Z,0.00
2019-06-19T00:24:37.526Z,0.00
2019-06-19T00:25:37.799Z,0.00
2019-06-19T00:26:37.927Z,0.00
2019-06-19T00:27:38.012Z,0.00
2019-06-19T00:28:38.244Z,0.00
2019-06-19T00:29:43.349Z,0.00
2019-06-19T00:30:40.557Z,0.00
2019-06-19T00:31:40.803Z,0.00
2019-06-19T00:32:41.491Z,0.00
2019-06-19T00:33:41.130Z,0.00
2019-06-19T00:34:41.280Z,0.00
2019-06-19T00:35:41.211Z,0.00
2019-06-19T00:36:41.817Z,0.00
2019-06-19T00:37:40.625Z,0.00
2019-06-19T00:38:41.734Z,0.00
2019-06-19T00:39:40.787Z,0.00
2019-06-19T00:40:41.724Z,0.00
2019-06-19T00:41:41.131Z,0.00
2019-06-19T00:42:42.449Z,0.00
2019-06-19T00:43:40.883Z,0.00
2019-06-19T00:44:40.865Z,0.00
2019-06-19T00:45:41.124Z,0.00
2019-06-19T00:46:41.148Z,0.00
2019-06-19T00:47:41.254Z,0.00
2019-06-19T00:48:41.591Z,0.00
2019-06-19T00:49:41.573Z,0.00
2019-06-19T00:50:41.791Z,0.00
2019-06-19T00:51:41.966Z,0.00
2019-06-19T00:52:42.037Z,0.00
2019-06-19T00:53:42.361Z,0.00
2019-06-19T00:54:42.467Z,0.00
2019-06-19T00:55:42.672Z,0.00
2019-06-19T00:56:42.871Z,0.00
2019-06-19T00:57:43.053Z,0.00
2019-06-19T00:58:43.132Z,0.00
2019-06-19T00:59:54.359Z,0.00
2019-06-19T01:00:43.499Z,0.00
2019-06-19T01:01:43.598Z,0.00
2019-06-19T01:02:43.833Z,0.00
2019-06-19T01:03:43.906Z,0.00
2019-06-19T01:04:44.153Z,0.00
2019-06-19T01:05:44.380Z,0.00
2019-06-19T01:06:44.527Z,0.00
2019-06-19T01:07:44.770Z,0.00
2019-06-19T01:08:44.853Z,0.00
2019-06-19T01:09:44.953Z,0.00
2019-06-19T01:10:45.198Z,0.00
2019-06-19T01:11:45.327Z,0.00
2019-06-19T01:12:45.511Z,0.00
2019-06-19T01:13:45.702Z,0.00
2019-06-19T01:14:45.923Z,0.00
2019-06-19T01:15:46.019Z,0.00
2019-06-19T01:16:46.273Z,0.00
2019-06-19T01:17:46.412Z,0.00
2019-06-19T01:18:46.530Z,0.00
2019-06-19T01:19:46.772Z,0.00
2019-06-19T01:20:46.764Z,0.00
2019-06-19T01:21:46.937Z,0.00
2019-06-19T01:22:47.159Z,0.00
2019-06-19T01:23:47.371Z,0.00
2019-06-19T01:24:47.595Z,0.00
2019-06-19T01:25:47.730Z,0.00
2019-06-19T01:26:47.865Z,0.00
2019-06-19T01:27:50.734Z,0.00
2019-06-19T01:28:50.985Z,0.00
2019-06-19T01:29:50.508Z,0.00
2019-06-19T01:30:50.874Z,0.00
2019-06-19T01:31:50.656Z,0.00
2019-06-19T01:32:51.193Z,0.00
2019-06-19T01:33:50.674Z,0.00
2019-06-19T01:34:50.908Z,0.00
2019-06-19T01:35:50.954Z,0.00
2019-06-19T01:36:50.878Z,0.00
2019-06-19T01:37:51.533Z,0.00
2019-06-19T01:38:51.653Z,0.00
2019-06-19T01:39:51.158Z,0.00
2019-06-19T01:40:51.292Z,0.00
2019-06-19T01:41:51.209Z,0.00
2019-06-19T01:42:51.808Z,0.00
2019-06-19T01:43:51.295Z,0.00
2019-06-19T01:44:51.589Z,0.00
2019-06-19T01:45:51.575Z,0.00
2019-06-19T01:46:51.555Z,0.00
2019-06-19T01:47:51.893Z,0.00
2019-06-19T01:48:52.003Z,0.00
2019-06-19T01:49:51.949Z,0.00
2019-06-19T01:50:51.820Z,0.00
2019-06-19T01:51:51.928Z,0.00
2019-06-19T01:52:52.162Z,0.00
2019-06-19T01:53:52.243Z,0.00
2019-06-19T01:54:52.338Z,0.00
2019-06-19T01:55:52.486Z,0.00
2019-06-19T01:56:52.722Z,0.00
2019-06-19T01:57:53.232Z,0.00
2019-06-19T01:58:53.271Z,0.00
2019-06-19T01:59:53.501Z,0.00
2019-06-19T02:00:53.622Z,0.00
2019-06-19T02:01:53.473Z,0.00
2019-06-19T02:02:53.671Z,0.00
2019-06-19T02:03:53.909Z,0.00
2019-06-19T02:04:54.029Z,0.00
2019-06-19T02:05:54.305Z,0.00
2019-06-19T02:06:54.406Z,0.00
2019-06-19T02:07:54.635Z,0.00
2019-06-19T02:08:54.705Z,0.00
2019-06-19T02:09:54.925Z,0.00
2019-06-19T02:10:55.061Z,0.00
2019-06-19T02:11:55.185Z,0.00
2019-06-19T02:12:55.420Z,0.00
2019-06-19T02:13:55.595Z,0.00
2019-06-19T02:14:55.782Z,0.00
2019-06-19T02:15:55.927Z,0.00
2019-06-19T02:16:56.231Z,0.00
2019-06-19T02:17:56.323Z,0.00
2019-06-19T02:18:56.582Z,0.00
2019-06-19T02:19:56.761Z,0.00
2019-06-19T02:20:56.868Z,0.00
2019-06-19T02:21:57.098Z,0.00
2019-06-19T02:22:57.183Z,0.00
2019-06-19T02:23:57.409Z,0.00
2019-06-19T02:24:57.531Z,0.00
2019-06-19T02:25:57.640Z,0.00
2019-06-19T02:26:57.841Z,0.00
2019-06-19T02:27:57.985Z,0.00
2019-06-19T02:29:00.567Z,0.00
2019-06-19T02:29:58.229Z,0.00
2019-06-19T02:31:09.480Z,0.00
2019-06-19T02:32:01.826Z,4.00
2019-06-19T02:33:01.570Z,4.00
2019-06-19T02:34:03.152Z,4.00
2019-06-19T02:35:02.157Z,0.00
2019-06-19T02:36:02.003Z,4.00
2019-06-19T02:37:02.056Z,4.00
2019-06-19T02:38:02.463Z,4.00
2019-06-19T02:39:01.781Z,8.00
2019-06-19T02:40:01.019Z,4.00
2019-06-19T02:41:00.505Z,8.00
2019-06-19T02:41:59.923Z,8.00
2019-06-19T02:43:00.190Z,8.00
2019-06-19T02:44:00.263Z,8.00
2019-06-19T02:45:00.493Z,8.00
2019-06-19T02:46:00.629Z,12.00
2019-06-19T02:47:00.753Z,12.00
2019-06-19T02:48:00.954Z,12.00
2019-06-19T02:49:01.125Z,16.00
2019-06-19T02:50:01.214Z,16.00
2019-06-19T02:51:01.415Z,16.00
2019-06-19T02:52:01.527Z,24.00
2019-06-19T02:53:01.811Z,24.00
2019-06-19T02:54:01.936Z,24.00
2019-06-19T02:55:02.117Z,28.00
2019-06-19T02:56:02.290Z,32.00
2019-06-19T02:57:02.553Z,32.00
2019-06-19T02:58:02.636Z,40.00
2019-06-19T02:59:02.820Z,40.00
2019-06-19T03:00:02.940Z,48.00
2019-06-19T03:01:10.937Z,52.00
2019-06-19T03:02:03.336Z,56.00
2019-06-19T03:03:03.419Z,64.00
2019-06-19T03:04:03.659Z,68.00
2019-06-19T03:05:03.870Z,76.00
2019-06-19T03:06:03.957Z,80.00
2019-06-19T03:07:04.224Z,88.00
2019-06-19T03:08:04.336Z,92.00
2019-06-19T03:09:04.421Z,96.00
2019-06-19T03:10:04.629Z,104.00
2019-06-19T03:11:04.768Z,112.00
2019-06-19T03:12:04.993Z,116.00
2019-06-19T03:13:05.086Z,124.00
2019-06-19T03:14:05.214Z,132.00
2019-06-19T03:15:05.455Z,140.00
2019-06-19T03:16:05.520Z,152.00
2019-06-19T03:17:05.648Z,160.00
2019-06-19T03:18:05.794Z,172.00
2019-06-19T03:19:06.039Z,180.00
2019-06-19T03:20:06.119Z,192.00
2019-06-19T03:21:06.382Z,204.00
2019-06-19T03:22:06.403Z,212.00
2019-06-19T03:23:06.577Z,224.00
2019-06-19T03:24:06.671Z,236.00
2019-06-19T03:25:06.892Z,252.00
2019-06-19T03:26:07.206Z,264.00
2019-06-19T03:27:07.291Z,272.00
2019-06-19T03:28:07.492Z,288.00
2019-06-19T03:29:07.605Z,292.00
2019-06-19T03:30:07.706Z,300.00
2019-06-19T03:31:07.823Z,308.00
2019-06-19T03:32:07.907Z,316.00
2019-06-19T03:33:08.079Z,328.00
2019-06-19T03:34:08.204Z,344.00
2019-06-19T03:35:08.331Z,356.00
2019-06-19T03:36:08.419Z,368.00
2019-06-19T03:37:08.643Z,392.00
2019-06-19T03:38:08.733Z,412.00
2019-06-19T03:39:09.033Z,432.00
2019-06-19T03:40:09.114Z,448.00
2019-06-19T03:41:09.211Z,456.00
2019-06-19T03:42:09.467Z,464.00
2019-06-19T03:43:09.578Z,472.00
2019-06-19T03:44:09.789Z,480.00
2019-06-19T03:45:09.942Z,492.00
2019-06-19T03:46:10.011Z,508.00
2019-06-19T03:47:10.235Z,528.00
2019-06-19T03:48:10.903Z,552.00
2019-06-19T03:49:10.571Z,572.00
2019-06-19T03:50:10.767Z,596.00
2019-06-19T03:51:10.893Z,620.00
2019-06-19T03:52:11.035Z,644.00
2019-06-19T03:53:11.111Z,680.00
2019-06-19T03:54:11.388Z,708.00
2019-06-19T03:55:11.482Z,740.00
2019-06-19T03:56:11.592Z,768.00
2019-06-19T03:57:11.824Z,796.00
2019-06-19T03:58:12.122Z,828.00
2019-06-19T03:59:12.264Z,864.00
2019-06-19T04:00:12.385Z,900.00
2019-06-19T04:01:12.518Z,936.00
2019-06-19T04:02:12.670Z,976.00
2019-06-19T04:03:12.817Z,1024.00
2019-06-19T04:04:12.994Z,1048.00
2019-06-19T04:05:13.133Z,1048.00
2019-06-19T04:06:13.257Z,1052.00
2019-06-19T04:07:16.659Z,1060.00
2019-06-19T04:08:13.488Z,1080.00
2019-06-19T04:09:13.704Z,1120.00
2019-06-19T04:10:13.823Z,1168.00
2019-06-19T04:11:13.905Z,1228.00
2019-06-19T04:12:14.123Z,1288.00
2019-06-19T04:13:14.210Z,1356.00
2019-06-19T04:14:14.337Z,1416.00
2019-06-19T04:15:14.612Z,1460.00
2019-06-19T04:16:14.803Z,1500.00
2019-06-19T04:17:14.964Z,1544.00
2019-06-19T04:18:15.154Z,1584.00
2019-06-19T04:19:15.278Z,1612.00
2019-06-19T04:20:15.576Z,1608.00
2019-06-19T04:21:15.782Z,1692.00
2019-06-19T04:22:16.306Z,1784.00
2019-06-19T04:23:17.542Z,1852.00
2019-06-19T04:24:17.376Z,1972.00
2019-06-19T04:25:17.451Z,2072.00
2019-06-19T04:26:16.981Z,2156.00
2019-06-19T04:27:17.599Z,2280.00
2019-06-19T04:28:17.128Z,2392.00
2019-06-19T04:29:17.046Z,2520.00
2019-06-19T04:30:17.133Z,2648.00
2019-06-19T04:31:17.295Z,2740.00
2019-06-19T04:32:17.405Z,2796.00
2019-06-19T04:33:17.642Z,2840.00
2019-06-19T04:34:17.776Z,2860.00
2019-06-19T04:35:17.870Z,2960.00
2019-06-19T04:36:18.155Z,3028.00
2019-06-19T04:37:18.239Z,3084.00
2019-06-19T04:38:18.575Z,3120.00
2019-06-19T04:39:18.667Z,3144.00
2019-06-19T04:40:18.842Z,3172.00
2019-06-19T04:41:18.955Z,3188.00
2019-06-19T04:42:19.081Z,3176.00
2019-06-19T04:43:19.198Z,3168.00
2019-06-19T04:44:19.274Z,3160.00
2019-06-19T04:45:19.380Z,3120.00
2019-06-19T04:46:19.641Z,3068.00
2019-06-19T04:47:19.668Z,2988.00
2019-06-19T04:48:21.015Z,3028.00
2019-06-19T04:49:23.522Z,3084.00
2019-06-19T04:50:22.361Z,3120.00
2019-06-19T04:51:20.388Z,3052.00
2019-06-19T04:52:22.967Z,2916.00
2019-06-19T04:53:20.719Z,2988.00
2019-06-19T04:54:20.970Z,3100.00
2019-06-19T04:55:20.953Z,3208.00
2019-06-19T04:56:21.093Z,3508.00
2019-06-19T04:57:21.178Z,3616.00
2019-06-19T04:58:21.397Z,3676.00
2019-06-19T04:59:21.510Z,3720.00
2019-06-19T05:00:21.874Z,3748.00
2019-06-19T05:01:21.843Z,3932.00
2019-06-19T05:02:21.959Z,4192.00
2019-06-19T05:03:22.192Z,4276.00
2019-06-19T05:04:22.297Z,4364.00
2019-06-19T05:05:22.496Z,4476.00
2019-06-19T05:06:22.571Z,4588.00
2019-06-19T05:07:22.711Z,4716.00
2019-06-19T05:08:23.000Z,4844.00
2019-06-19T05:09:23.140Z,4944.00
2019-06-19T05:10:23.209Z,5004.00
2019-06-19T05:11:23.487Z,5060.00
2019-06-19T05:12:23.657Z,5092.00
2019-06-19T05:13:23.898Z,5092.00
2019-06-19T05:14:24.718Z,5128.00
2019-06-19T05:15:24.238Z,5116.00
2019-06-19T05:16:24.609Z,5104.00
2019-06-19T05:17:24.517Z,5052.00
2019-06-19T05:18:24.605Z,5092.00
2019-06-19T05:19:24.942Z,5032.00
2019-06-19T05:20:25.055Z,4992.00
2019-06-19T05:21:25.210Z,5044.00
2019-06-19T05:22:25.410Z,5064.00
2019-06-19T05:23:25.512Z,5088.00
2019-06-19T05:24:25.699Z,5120.00
2019-06-19T05:25:25.914Z,5160.00
2019-06-19T05:26:26.094Z,5216.00
2019-06-19T05:27:27.077Z,5300.00
2019-06-19T05:28:26.260Z,5368.00
2019-06-19T05:29:26.431Z,5440.00
2019-06-19T05:30:26.599Z,5532.00
2019-06-19T05:31:26.714Z,5632.00
2019-06-19T05:32:36.184Z,5732.00
2019-06-19T05:33:27.073Z,5904.00
2019-06-19T05:34:27.431Z,6060.00
2019-06-19T05:35:27.265Z,6148.00
2019-06-19T05:36:27.484Z,6132.00
2019-06-19T05:37:27.721Z,6096.00
2019-06-19T05:38:27.942Z,6020.00
2019-06-19T05:39:28.027Z,5952.00
2019-06-19T05:40:28.186Z,5784.00
2019-06-19T05:41:28.290Z,5732.00
2019-06-19T05:42:28.382Z,5632.00
2019-06-19T05:43:28.635Z,5480.00
2019-06-19T05:44:28.726Z,5336.00
2019-06-19T05:45:29.192Z,5196.00
2019-06-19T05:46:29.069Z,5080.00
2019-06-19T05:47:29.192Z,4948.00
2019-06-19T05:48:29.333Z,4820.00
2019-06-19T05:49:29.567Z,4720.00
2019-06-19T05:50:29.571Z,4600.00
2019-06-19T05:51:29.671Z,4508.00
2019-06-19T05:52:30.420Z,4420.00
2019-06-19T05:53:30.084Z,4304.00
2019-06-19T05:54:30.207Z,4204.00
2019-06-19T05:55:30.394Z,4212.00
2019-06-19T05:56:30.491Z,4348.00
2019-06-19T05:57:30.779Z,4416.00
2019-06-19T05:58:30.861Z,4416.00
2019-06-19T05:59:31.032Z,4416.00
2019-06-19T06:00:31.321Z,4420.00
2019-06-19T06:01:31.572Z,4416.00
2019-06-19T06:02:31.607Z,4432.00
2019-06-19T06:03:31.711Z,4440.00
2019-06-19T06:04:31.998Z,4464.00
2019-06-19T06:05:32.091Z,4484.00
2019-06-19T06:06:32.249Z,4508.00
2019-06-19T06:07:32.389Z,4556.00
2019-06-19T06:08:32.569Z,4600.00
2019-06-19T06:09:32.715Z,4644.00
2019-06-19T06:10:32.794Z,4656.00
2019-06-19T06:11:32.999Z,4656.00
2019-06-19T06:12:33.149Z,4652.00
2019-06-19T06:13:33.268Z,4660.00
2019-06-19T06:14:33.385Z,4692.00
2019-06-19T06:15:33.542Z,4720.00
2019-06-19T06:16:33.695Z,4772.00
2019-06-19T06:17:33.805Z,4856.00
2019-06-19T06:18:34.004Z,4984.00
2019-06-19T06:19:34.270Z,5196.00
2019-06-19T06:20:34.349Z,5416.00
2019-06-19T06:21:34.545Z,5584.00
2019-06-19T06:22:34.803Z,5684.00
2019-06-19T06:23:34.913Z,5704.00
2019-06-19T06:24:35.067Z,5660.00
2019-06-19T06:25:35.387Z,5568.00
2019-06-19T06:26:35.543Z,5476.00
2019-06-19T06:27:35.675Z,5400.00
2019-06-19T06:28:35.761Z,5356.00
2019-06-19T06:29:35.856Z,5312.00
2019-06-19T06:30:36.114Z,5284.00
2019-06-19T06:31:36.320Z,5292.00
2019-06-19T06:32:36.405Z,5316.00
2019-06-19T06:33:36.669Z,5360.00
2019-06-19T06:34:36.846Z,5392.00
2019-06-19T06:35:36.929Z,5468.00
2019-06-19T06:36:37.215Z,5560.00
2019-06-19T06:37:37.328Z,5656.00
2019-06-19T06:38:37.727Z,5724.00
2019-06-19T06:39:37.899Z,5704.00
2019-06-19T06:40:47.552Z,5020.00
2019-06-19T06:41:37.915Z,4484.00
2019-06-19T06:42:38.061Z,4380.00
2019-06-19T06:43:38.246Z,4428.00
2019-06-19T06:44:38.413Z,5328.00
2019-06-19T06:45:38.574Z,6016.00
2019-06-19T06:46:38.631Z,6108.00
2019-06-19T06:47:38.894Z,6168.00
2019-06-19T06:48:39.084Z,6264.00
2019-06-19T06:49:39.286Z,6368.00
2019-06-19T06:50:39.402Z,6492.00
2019-06-19T06:51:39.476Z,6656.00
2019-06-19T06:52:39.747Z,6808.00
2019-06-19T06:53:39.824Z,6984.00
2019-06-19T06:54:40.092Z,7136.00
2019-06-19T06:55:40.275Z,7296.00
2019-06-19T06:56:40.375Z,7480.00
2019-06-19T06:57:40.669Z,7632.00
2019-06-19T06:58:40.885Z,7836.00
2019-06-19T06:59:41.044Z,8128.00
2019-06-19T07:00:41.036Z,8556.00
2019-06-19T07:01:41.212Z,9088.00
2019-06-19T07:02:41.312Z,9892.00
2019-06-19T07:03:41.518Z,10992.00
2019-06-19T07:04:41.731Z,14976.00
2019-06-19T07:05:41.800Z,31040.00
2019-06-19T07:06:41.912Z,51520.00
2019-06-19T07:07:42.126Z,77120.00
2019-06-19T07:08:42.245Z,93024.00
2019-06-19T07:09:42.531Z,96032.00
2019-06-19T07:10:42.934Z,92096.00
2019-06-19T07:11:42.847Z,90432.00
2019-06-19T07:12:42.942Z,91904.00
2019-06-19T07:13:44.736Z,93664.00
2019-06-19T07:14:44.095Z,96576.00
2019-06-19T07:15:43.443Z,98432.00
2019-06-19T07:16:43.601Z,96640.00
2019-06-19T07:17:43.743Z,95872.00
2019-06-19T07:18:43.950Z,90816.00
2019-06-19T07:19:45.747Z,81600.00
2019-06-19T07:20:44.172Z,69888.00
2019-06-19T07:21:44.381Z,58880.00
2019-06-19T07:22:44.679Z,50080.00
2019-06-19T07:23:44.809Z,42144.00
2019-06-19T07:24:44.955Z,33728.00
2019-06-19T07:25:45.229Z,28032.00
2019-06-19T07:26:52.921Z,25344.00
2019-06-19T07:27:47.940Z,24256.00
2019-06-19T07:28:47.293Z,23488.00
2019-06-19T07:29:46.724Z,23136.00
2019-06-19T07:30:46.278Z,22816.00
2019-06-19T07:31:46.526Z,22720.00
2019-06-19T07:32:48.520Z,22816.00
2019-06-19T07:33:47.704Z,22880.00
2019-06-19T07:34:46.813Z,22592.00
2019-06-19T07:35:47.159Z,22336.00
2019-06-19T07:36:47.390Z,22112.00
2019-06-19T07:37:48.670Z,22048.00
2019-06-19T07:38:48.112Z,22272.00
2019-06-19T07:39:49.822Z,23328.00
2019-06-19T07:40:48.543Z,24032.00
2019-06-19T07:41:49.239Z,25824.00
2019-06-19T07:42:48.531Z,26752.00
2019-06-19T07:43:48.295Z,29952.00
2019-06-19T07:44:48.516Z,28160.00
2019-06-19T07:45:48.735Z,32096.00
2019-06-19T07:46:48.999Z,35936.00
2019-06-19T07:47:49.203Z,37344.00
2019-06-19T07:48:49.261Z,39264.00
2019-06-19T07:49:49.459Z,38240.00
2019-06-19T07:50:49.924Z,39040.00
2019-06-19T07:51:50.695Z,41312.00
2019-06-19T07:52:51.157Z,42080.00
2019-06-19T07:53:51.089Z,40384.00
2019-06-19T07:54:51.745Z,41696.00
2019-06-19T07:55:51.473Z,42912.00
2019-06-19T07:56:51.305Z,43488.00
2019-06-19T07:57:52.273Z,43712.00
2019-06-19T07:58:52.141Z,44160.00
2019-06-19T07:59:52.030Z,44736.00
2019-06-19T08:00:52.641Z,45280.00
2019-06-19T08:02:02.320Z,47104.00
2019-06-19T08:02:53.539Z,45600.00
2019-06-19T08:03:58.007Z,40256.00
2019-06-19T08:04:53.168Z,37856.00
2019-06-19T08:05:54.196Z,35104.00
2019-06-19T08:06:56.138Z,35232.00
2019-06-19T08:07:53.429Z,34688.00
2019-06-19T08:08:54.073Z,36960.00
2019-06-19T08:09:53.417Z,38752.00
2019-06-19T08:10:53.844Z,38112.00
2019-06-19T08:11:54.021Z,35648.00
2019-06-19T08:12:54.329Z,33536.00
2019-06-19T08:13:55.779Z,30112.00
2019-06-19T08:14:54.711Z,26848.00
2019-06-19T08:15:54.829Z,26720.00
2019-06-19T08:16:54.898Z,26240.00
2019-06-19T08:17:55.763Z,26432.00
2019-06-19T08:18:55.755Z,28768.00
2019-06-19T08:19:57.231Z,33536.00
2019-06-19T08:20:54.931Z,46368.00
2019-06-19T08:21:55.028Z,66848.00
2019-06-19T08:22:55.305Z,86336.00
2019-06-19T08:23:55.599Z,97024.00
2019-06-19T08:24:56.184Z,96864.00
2019-06-19T08:25:55.647Z,92352.00
2019-06-19T08:26:55.934Z,91776.00
2019-06-19T08:27:55.997Z,93888.00
2019-06-19T08:28:58.711Z,96896.00
2019-06-19T08:29:56.604Z,95904.00
2019-06-19T08:30:56.578Z,94016.00
2019-06-19T08:31:57.228Z,92672.00
2019-06-19T08:32:57.623Z,92000.00
2019-06-19T08:34:10.567Z,92288.00
2019-06-19T08:34:58.276Z,94912.00
2019-06-19T08:35:57.881Z,96736.00
2019-06-19T08:36:59.286Z,96992.00
2019-06-19T08:37:58.072Z,97792.00
2019-06-19T08:38:59.759Z,97920.00
2019-06-19T08:39:58.535Z,94880.00
2019-06-19T08:41:01.058Z,90176.00
2019-06-19T08:42:00.232Z,89376.00
2019-06-19T08:42:58.749Z,87872.00
2019-06-19T08:43:58.940Z,89632.00
2019-06-19T08:44:59.122Z,89792.00
2019-06-19T08:45:59.349Z,91648.00
2019-06-19T08:46:59.503Z,92512.00
2019-06-19T08:47:59.741Z,91936.00
2019-06-19T08:48:59.975Z,92640.00
2019-06-19T08:50:00.160Z,92896.00
2019-06-19T08:51:00.350Z,92128.00
2019-06-19T08:52:00.521Z,91776.00
2019-06-19T08:53:00.717Z,93280.00
2019-06-19T08:54:00.958Z,92928.00
2019-06-19T08:55:01.141Z,91072.00
2019-06-19T08:56:01.593Z,90720.00
2019-06-19T08:57:01.656Z,92000.00
2019-06-19T08:58:01.711Z,91904.00
2019-06-19T08:59:01.940Z,89856.00
2019-06-19T09:00:02.150Z,86720.00
2019-06-19T09:01:02.322Z,83680.00
2019-06-19T09:02:02.694Z,82560.00
2019-06-19T09:03:02.705Z,83744.00
2019-06-19T09:04:03.144Z,84000.00
2019-06-19T09:05:03.053Z,82432.00
2019-06-19T09:06:03.332Z,82176.00
2019-06-19T09:07:03.372Z,86240.00
2019-06-19T09:08:03.609Z,88384.00
2019-06-19T09:09:03.823Z,87136.00
2019-06-19T09:10:04.019Z,86752.00
2019-06-19T09:11:04.528Z,86752.00
2019-06-19T09:12:04.712Z,86944.00
2019-06-19T09:13:04.752Z,86528.00
2019-06-19T09:14:04.749Z,87264.00
2019-06-19T09:15:04.966Z,84800.00
2019-06-19T09:16:05.165Z,84352.00
2019-06-19T09:17:05.344Z,84192.00
2019-06-19T09:18:05.575Z,84960.00
2019-06-19T09:19:05.770Z,80640.00
2019-06-19T09:20:05.984Z,80064.00
2019-06-19T09:21:06.176Z,80512.00
2019-06-19T09:22:06.366Z,79840.00
2019-06-19T09:23:06.561Z,80576.00
2019-06-19T09:24:07.501Z,74112.00
2019-06-19T09:25:08.141Z,77504.00
2019-06-19T09:26:07.139Z,86400.00
2019-06-19T09:27:07.336Z,85248.00
2019-06-19T09:28:07.534Z,85952.00
2019-06-19T09:29:08.496Z,85760.00
2019-06-19T09:30:07.902Z,81088.00
2019-06-19T09:31:08.088Z,80064.00
2019-06-19T09:32:08.326Z,81728.00
2019-06-19T09:33:08.461Z,80768.00
2019-06-19T09:34:08.664Z,80096.00
2019-06-19T09:35:08.839Z,82912.00
2019-06-19T09:36:09.193Z,85024.00
2019-06-19T09:37:09.260Z,82176.00
2019-06-19T09:38:09.462Z,81120.00
2019-06-19T09:39:09.658Z,80160.00
2019-06-19T09:40:09.897Z,78560.00
2019-06-19T09:41:10.105Z,76448.00
2019-06-19T09:42:10.297Z,75648.00
2019-06-19T09:43:10.493Z,78272.00
2019-06-19T09:44:10.693Z,76960.00
2019-06-19T09:45:10.910Z,77184.00
2019-06-19T09:46:11.021Z,76992.00
2019-06-19T09:47:11.233Z,77600.00
2019-06-19T09:48:11.413Z,78400.00
2019-06-19T09:49:11.606Z,77056.00
2019-06-19T09:50:11.804Z,76992.00
2019-06-19T09:51:11.921Z,79712.00
2019-06-19T09:52:12.129Z,79648.00
2019-06-19T09:53:12.316Z,76288.00
2019-06-19T09:54:12.512Z,75040.00
2019-06-19T09:55:13.097Z,75584.00
2019-06-19T09:56:13.154Z,75776.00
2019-06-19T09:57:13.000Z,75136.00
2019-06-19T09:58:13.190Z,74816.00
2019-06-19T09:59:13.383Z,75552.00
2019-06-19T10:00:13.690Z,73440.00
2019-06-19T10:01:13.966Z,72736.00
2019-06-19T10:02:14.024Z,74432.00
2019-06-19T10:03:14.420Z,73376.00
2019-06-19T10:04:14.340Z,71936.00
2019-06-19T10:05:14.885Z,69376.00
2019-06-19T10:06:15.876Z,68992.00
2019-06-19T10:07:15.000Z,69664.00
2019-06-19T10:08:15.162Z,72448.00
2019-06-19T10:09:15.271Z,74880.00
2019-06-19T10:10:15.332Z,72640.00
2019-06-19T10:11:15.578Z,60256.00
2019-06-19T10:12:17.946Z,47808.00
2019-06-19T10:13:16.014Z,42144.00
2019-06-19T10:14:16.229Z,48032.00
2019-06-19T10:15:16.453Z,61184.00
2019-06-19T10:16:16.663Z,74176.00
2019-06-19T10:17:16.876Z,78272.00
2019-06-19T10:18:17.395Z,76896.00
2019-06-19T10:19:17.654Z,73344.00
2019-06-19T10:20:17.622Z,72544.00
2019-06-19T10:21:17.868Z,70304.00
2019-06-19T10:22:17.863Z,69984.00
2019-06-19T10:23:18.023Z,70880.00
2019-06-19T10:24:18.244Z,68864.00
2019-06-19T10:25:18.642Z,65664.00
2019-06-19T10:26:18.507Z,63968.00
2019-06-19T10:27:18.710Z,65728.00
2019-06-19T10:28:18.977Z,66848.00
2019-06-19T10:29:19.055Z,68128.00
2019-06-19T10:30:19.493Z,64160.00
2019-06-19T10:31:19.564Z,57664.00
2019-06-19T10:32:31.542Z,58656.00
2019-06-19T10:33:19.825Z,61376.00
2019-06-19T10:34:20.011Z,61120.00
2019-06-19T10:35:23.868Z,60384.00
2019-06-19T10:36:20.442Z,59168.00
2019-06-19T10:37:20.704Z,60000.00
2019-06-19T10:38:20.833Z,61472.00
2019-06-19T10:39:20.869Z,59584.00
2019-06-19T10:40:21.807Z,59488.00
2019-06-19T10:41:21.261Z,59648.00
2019-06-19T10:42:22.124Z,62368.00
2019-06-19T10:43:22.138Z,63456.00
2019-06-19T10:44:22.554Z,60864.00
2019-06-19T10:45:21.969Z,48736.00
2019-06-19T10:46:23.317Z,42336.00
2019-06-19T10:47:22.451Z,53568.00
2019-06-19T10:48:22.678Z,54944.00
2019-06-19T10:49:23.786Z,42976.00
2019-06-19T10:50:23.541Z,35200.00
2019-06-19T10:51:22.995Z,31264.00
2019-06-19T10:52:23.623Z,27040.00
2019-06-19T10:53:23.400Z,24384.00
2019-06-19T10:54:25.188Z,22976.00
2019-06-19T10:55:24.637Z,21984.00
2019-06-19T10:56:23.980Z,21984.00
2019-06-19T10:57:24.290Z,22208.00
2019-06-19T10:58:24.405Z,21568.00
2019-06-19T10:59:24.799Z,20448.00
2019-06-19T11:00:24.769Z,19840.00
2019-06-19T11:01:25.075Z,19904.00
2019-06-19T11:02:25.140Z,19904.00
2019-06-19T11:03:25.627Z,19872.00
2019-06-19T11:04:25.917Z,19904.00
2019-06-19T11:05:38.812Z,19200.00
2019-06-19T11:06:26.120Z,18720.00
2019-06-19T11:07:26.118Z,19488.00
2019-06-19T11:08:26.471Z,20096.00
2019-06-19T11:09:26.600Z,19520.00
2019-06-19T11:10:26.447Z,19136.00
2019-06-19T11:11:26.733Z,19648.00
2019-06-19T11:12:26.703Z,20384.00
2019-06-19T11:13:26.908Z,19520.00
2019-06-19T11:14:27.194Z,19136.00
2019-06-19T11:15:27.311Z,19136.00
2019-06-19T11:16:27.529Z,19296.00
2019-06-19T11:17:27.736Z,19424.00
2019-06-19T11:18:27.948Z,19328.00
2019-06-19T11:19:28.936Z,18784.00
2019-06-19T11:20:31.289Z,18720.00
2019-06-19T11:21:28.646Z,19328.00
2019-06-19T11:22:29.452Z,20704.00
2019-06-19T11:23:29.009Z,20640.00
2019-06-19T11:24:29.975Z,19968.00
2019-06-19T11:25:29.784Z,19136.00
2019-06-19T11:26:29.745Z,16352.00
2019-06-19T11:27:29.616Z,13580.00
2019-06-19T11:28:29.851Z,12444.00
2019-06-19T11:29:30.075Z,12156.00
2019-06-19T11:30:30.303Z,12020.00
2019-06-19T11:31:30.738Z,11784.00
2019-06-19T11:32:32.835Z,11640.00
2019-06-19T11:33:31.471Z,11416.00
2019-06-19T11:34:32.305Z,11244.00
2019-06-19T11:35:32.628Z,11084.00
2019-06-19T11:36:31.491Z,10776.00
2019-06-19T11:37:31.719Z,10440.00
2019-06-19T11:38:31.824Z,10012.00
2019-06-19T11:39:33.318Z,9424.00
2019-06-19T11:40:32.988Z,8820.00
2019-06-19T11:41:32.474Z,8424.00
2019-06-19T11:42:32.613Z,7888.00
2019-06-19T11:43:33.030Z,7352.00
2019-06-19T11:44:33.025Z,6752.00
2019-06-19T11:45:33.259Z,6160.00
2019-06-19T11:46:33.550Z,5584.00
2019-06-19T11:47:33.648Z,5084.00
2019-06-19T11:48:33.978Z,4640.00
2019-06-19T11:49:34.360Z,4336.00
2019-06-19T11:50:34.580Z,4188.00
2019-06-19T11:51:34.640Z,4100.00
2019-06-19T11:52:34.578Z,4048.00
2019-06-19T11:53:34.833Z,4028.00
2019-06-19T11:54:34.927Z,3988.00
2019-06-19T11:55:37.696Z,3952.00
2019-06-19T11:56:35.524Z,3904.00
2019-06-19T11:57:36.361Z,3872.00
2019-06-19T11:58:35.606Z,3868.00
2019-06-19T11:59:49.515Z,3832.00
2019-06-19T12:00:36.004Z,3796.00
2019-06-19T12:01:36.135Z,3752.00
2019-06-19T12:02:36.568Z,3700.00
2019-06-19T12:03:37.245Z,3676.00
2019-06-19T12:04:36.711Z,3652.00
2019-06-19T12:05:36.757Z,3612.00
2019-06-19T12:06:36.975Z,3560.00
2019-06-19T12:07:37.843Z,3512.00
2019-06-19T12:08:37.730Z,3468.00
2019-06-19T12:09:39.145Z,3416.00
2019-06-19T12:10:38.189Z,3376.00
2019-06-19T12:11:39.798Z,3348.00
2019-06-19T12:12:38.371Z,3332.00
2019-06-19T12:13:38.371Z,3340.00
2019-06-19T12:14:38.360Z,3340.00
2019-06-19T12:15:40.794Z,3312.00
2019-06-19T12:16:39.854Z,3272.00
2019-06-19T12:17:39.557Z,3248.00